KLM225 EHAM-LFPG
Flight info
| Callsign | KLM225 |
|---|---|
| Flight time | N/A |
| Altitude | 29000 |
| Route | WOODY N872 DENOX DCT SISGA DCT DELOM DCT MOPIL |
| Aircraft | A21N/M-SDE2E3FGHIRWXY/LB1 |
Departure
| Time | 2026-05-07 04:02 |
|---|---|
| Airport | Amsterdam Airport Schiphol (EHAM) |
Arrival
| Time | N/A |
|---|---|
| Airport | Charles de Gaulle International Airport (LFPG) |
| Time | Latitude | Longitude | Altitude | Speed | Heading |
|---|---|---|---|---|---|
| 2026-05-07 03:39 | 52.30999 | 4.77314 | 4 ft | 0 kts | 182° |
| 2026-05-07 03:50 | 52.31000 | 4.77314 | 4 ft | 2 kts | 182° |
| 2026-05-07 03:50 | 52.31025 | 4.77314 | 4 ft | 4 kts | 175° |
| 2026-05-07 03:50 | 52.31051 | 4.77311 | 4 ft | 4 kts | 184° |
| 2026-05-07 03:51 | 52.31066 | 4.77319 | 4 ft | 3 kts | 256° |
| 2026-05-07 03:51 | 52.31069 | 4.77357 | 4 ft | 2 kts | 264° |
| 2026-05-07 03:51 | 52.31070 | 4.77361 | 4 ft | 2 kts | 264° |
| 2026-05-07 03:54 | 52.31070 | 4.77360 | 4 ft | 0 kts | 264° |
| 2026-05-07 03:54 | 52.31065 | 4.77295 | 4 ft | 9 kts | 264° |
| 2026-05-07 03:54 | 52.31062 | 4.77182 | 4 ft | 11 kts | 274° |
| 2026-05-07 03:54 | 52.31076 | 4.77048 | 4 ft | 13 kts | 285° |
| 2026-05-07 03:55 | 52.31163 | 4.77015 | 4 ft | 15 kts | 0° |
| 2026-05-07 03:55 | 52.31261 | 4.77083 | 4 ft | 17 kts | 33° |
| 2026-05-07 03:55 | 52.31365 | 4.77188 | 4 ft | 18 kts | 19° |
| 2026-05-07 03:55 | 52.31497 | 4.77196 | 4 ft | 20 kts | 358° |
| 2026-05-07 03:56 | 52.31565 | 4.77022 | 4 ft | 21 kts | 272° |
| 2026-05-07 03:56 | 52.31555 | 4.76805 | 4 ft | 20 kts | 271° |
| 2026-05-07 03:56 | 52.31546 | 4.76570 | 4 ft | 21 kts | 266° |
| 2026-05-07 03:56 | 52.31538 | 4.76319 | 5 ft | 23 kts | 267° |
| 2026-05-07 03:57 | 52.31532 | 4.76050 | 5 ft | 24 kts | 268° |
| 2026-05-07 03:57 | 52.31525 | 4.75772 | 4 ft | 25 kts | 268° |
| 2026-05-07 03:57 | 52.31518 | 4.75472 | 4 ft | 27 kts | 268° |
| 2026-05-07 03:57 | 52.31505 | 4.75160 | 4 ft | 28 kts | 263° |
| 2026-05-07 03:58 | 52.31488 | 4.74834 | 4 ft | 30 kts | 266° |
| 2026-05-07 03:58 | 52.31475 | 4.74491 | 5 ft | 31 kts | 266° |
| 2026-05-07 03:58 | 52.31468 | 4.74325 | 5 ft | 5 kts | 266° |
| 2026-05-07 03:58 | 52.31463 | 4.74252 | 4 ft | 13 kts | 251° |
| 2026-05-07 03:59 | 52.31391 | 4.74140 | 4 ft | 16 kts | 200° |
| 2026-05-07 03:59 | 52.31276 | 4.74127 | 4 ft | 17 kts | 181° |
| 2026-05-07 03:59 | 52.31150 | 4.74115 | 4 ft | 19 kts | 185° |
| 2026-05-07 03:59 | 52.31013 | 4.74100 | 4 ft | 20 kts | 183° |
| 2026-05-07 04:00 | 52.30867 | 4.74086 | 4 ft | 22 kts | 183° |
| 2026-05-07 04:00 | 52.30712 | 4.74071 | 4 ft | 23 kts | 183° |
| 2026-05-07 04:00 | 52.30616 | 4.74053 | 4 ft | 8 kts | 219° |
| 2026-05-07 04:00 | 52.30602 | 4.73953 | 4 ft | 11 kts | 293° |
| 2026-05-07 04:01 | 52.30663 | 4.73872 | 4 ft | 13 kts | 333° |
| 2026-05-07 04:01 | 52.30749 | 4.73806 | 4 ft | 15 kts | 343° |
| 2026-05-07 04:01 | 52.30891 | 4.73797 | 4 ft | 42 kts | 4° |
| 2026-05-07 04:01 | 52.31420 | 4.73851 | 3 ft | 107 kts | 2° |
| 2026-05-07 04:02 | 52.32345 | 4.73927 | 16 ft | 154 kts | 3° |
| 2026-05-07 04:02 | 52.33434 | 4.74018 | 416 ft | 160 kts | 2° |
| 2026-05-07 04:02 | 52.34576 | 4.74222 | 985 ft | 164 kts | 19° |
| 2026-05-07 04:02 | 52.35610 | 4.75103 | 1547 ft | 173 kts | 30° |
| 2026-05-07 04:03 | 52.36620 | 4.76293 | 2054 ft | 187 kts | 45° |
| 2026-05-07 04:03 | 52.37297 | 4.78229 | 2606 ft | 204 kts | 72° |
| 2026-05-07 04:03 | 52.37353 | 4.80642 | 3121 ft | 225 kts | 99° |
| 2026-05-07 04:03 | 52.36763 | 4.83061 | 3826 ft | 235 kts | 125° |
| 2026-05-07 04:04 | 52.35541 | 4.84870 | 4572 ft | 247 kts | 154° |
| 2026-05-07 04:04 | 52.33805 | 4.85417 | 5074 ft | 265 kts | 182° |
| 2026-05-07 04:04 | 52.31939 | 4.85228 | 5777 ft | 273 kts | 185° |
| 2026-05-07 04:04 | 52.30025 | 4.84999 | 6595 ft | 276 kts | 184° |
| 2026-05-07 04:05 | 52.28097 | 4.84838 | 7395 ft | 279 kts | 183° |
| 2026-05-07 04:05 | 52.26143 | 4.84724 | 8222 ft | 283 kts | 182° |
| 2026-05-07 04:05 | 52.24167 | 4.84645 | 9073 ft | 286 kts | 182° |
| 2026-05-07 04:05 | 52.22060 | 4.84579 | 9749 ft | 289 kts | 182° |
| 2026-05-07 04:06 | 52.20037 | 4.84525 | 10272 ft | 297 kts | 182° |
| 2026-05-07 04:06 | 52.17895 | 4.84468 | 10610 ft | 318 kts | 182° |
| 2026-05-07 04:06 | 52.15823 | 4.84411 | 10878 ft | 337 kts | 182° |
| 2026-05-07 04:06 | 52.13357 | 4.84338 | 11162 ft | 357 kts | 182° |
| 2026-05-07 04:07 | 52.10818 | 4.84268 | 11555 ft | 370 kts | 182° |
| 2026-05-07 04:07 | 52.08651 | 4.84209 | 12088 ft | 374 kts | 182° |
| 2026-05-07 04:07 | 52.05974 | 4.84140 | 12798 ft | 377 kts | 182° |
| 2026-05-07 04:07 | 52.03296 | 4.84019 | 13491 ft | 380 kts | 185° |
| 2026-05-07 04:08 | 52.00709 | 4.83148 | 14092 ft | 381 kts | 201° |
| 2026-05-07 04:08 | 51.98281 | 4.81391 | 14657 ft | 383 kts | 208° |
| 2026-05-07 04:08 | 51.95899 | 4.79404 | 15209 ft | 386 kts | 209° |
| 2026-05-07 04:08 | 51.93519 | 4.77413 | 15747 ft | 390 kts | 208° |
| 2026-05-07 04:09 | 51.91105 | 4.75449 | 16251 ft | 393 kts | 207° |
| 2026-05-07 04:09 | 51.88644 | 4.73497 | 16773 ft | 396 kts | 207° |
| 2026-05-07 04:09 | 51.85817 | 4.71284 | 17340 ft | 399 kts | 207° |
| 2026-05-07 04:09 | 51.83308 | 4.69330 | 17833 ft | 402 kts | 207° |
| 2026-05-07 04:10 | 51.80782 | 4.67358 | 18311 ft | 405 kts | 207° |
| 2026-05-07 04:10 | 51.78240 | 4.65375 | 18728 ft | 407 kts | 207° |
| 2026-05-07 04:10 | 51.75647 | 4.63359 | 19151 ft | 410 kts | 206° |
| 2026-05-07 04:10 | 51.72965 | 4.61278 | 19572 ft | 412 kts | 206° |
| 2026-05-07 04:11 | 51.70374 | 4.59270 | 20007 ft | 414 kts | 206° |
| 2026-05-07 04:11 | 51.67770 | 4.57254 | 20414 ft | 416 kts | 206° |
| 2026-05-07 04:11 | 51.65154 | 4.55232 | 20822 ft | 418 kts | 206° |
| 2026-05-07 04:11 | 51.62525 | 4.53203 | 21221 ft | 421 kts | 206° |
| 2026-05-07 04:12 | 51.59878 | 4.51161 | 21629 ft | 423 kts | 206° |
| 2026-05-07 04:12 | 51.57216 | 4.49108 | 22032 ft | 425 kts | 206° |
| 2026-05-07 04:12 | 51.54539 | 4.47047 | 22436 ft | 428 kts | 206° |
| 2026-05-07 04:12 | 51.51852 | 4.44981 | 22846 ft | 430 kts | 206° |
| 2026-05-07 04:13 | 51.49109 | 4.42880 | 23278 ft | 433 kts | 206° |
| 2026-05-07 04:13 | 51.46414 | 4.40818 | 23677 ft | 435 kts | 206° |
| 2026-05-07 04:13 | 51.43638 | 4.38700 | 24029 ft | 438 kts | 206° |
| 2026-05-07 04:13 | 51.40879 | 4.36603 | 24385 ft | 440 kts | 206° |
| 2026-05-07 04:14 | 51.38143 | 4.34522 | 24736 ft | 442 kts | 206° |
| 2026-05-07 04:14 | 51.35393 | 4.32434 | 25071 ft | 445 kts | 206° |
| 2026-05-07 04:14 | 51.33459 | 4.30966 | 25310 ft | 446 kts | 206° |
| 2026-05-07 04:14 | 51.30502 | 4.28724 | 25689 ft | 448 kts | 206° |
| 2026-05-07 04:15 | 51.27739 | 4.26635 | 26138 ft | 447 kts | 206° |
| 2026-05-07 04:15 | 51.24915 | 4.24497 | 26588 ft | 446 kts | 206° |
| 2026-05-07 04:15 | 51.22111 | 4.22377 | 27031 ft | 446 kts | 206° |
| 2026-05-07 04:15 | 51.19312 | 4.20266 | 27459 ft | 445 kts | 206° |
| 2026-05-07 04:16 | 51.16265 | 4.18068 | 27924 ft | 445 kts | 202° |
| 2026-05-07 04:16 | 51.13348 | 4.16429 | 28354 ft | 444 kts | 199° |
| 2026-05-07 04:16 | 51.10215 | 4.14794 | 28806 ft | 444 kts | 199° |
| 2026-05-07 04:16 | 51.07204 | 4.13216 | 29022 ft | 444 kts | 199° |
| 2026-05-07 04:17 | 51.04256 | 4.11643 | 29044 ft | 450 kts | 199° |
| 2026-05-07 04:17 | 50.98111 | 4.08302 | 29028 ft | 466 kts | 200° |
| 2026-05-07 04:18 | 50.91884 | 4.04903 | 29014 ft | 467 kts | 199° |
| 2026-05-07 04:18 | 50.85835 | 4.02960 | 29009 ft | 469 kts | 180° |
| 2026-05-07 04:19 | 50.79769 | 4.03676 | 29014 ft | 469 kts | 175° |
| 2026-05-07 04:19 | 50.73225 | 4.04589 | 29010 ft | 469 kts | 176° |
| 2026-05-07 04:20 | 50.66672 | 4.05340 | 29013 ft | 469 kts | 176° |
| 2026-05-07 04:20 | 50.59689 | 4.06080 | 29012 ft | 469 kts | 176° |
| 2026-05-07 04:21 | 50.50768 | 4.07041 | 29015 ft | 469 kts | 176° |
| 2026-05-07 04:21 | 50.44035 | 4.07773 | 29016 ft | 469 kts | 176° |
| 2026-05-07 04:22 | 50.37428 | 4.08489 | 29013 ft | 469 kts | 176° |
| 2026-05-07 04:22 | 50.30907 | 4.09193 | 29011 ft | 470 kts | 176° |
| 2026-05-07 04:23 | 50.24124 | 4.09931 | 29010 ft | 470 kts | 176° |
| 2026-05-07 04:23 | 50.17602 | 4.10636 | 29006 ft | 470 kts | 176° |
| 2026-05-07 04:24 | 50.10719 | 4.10631 | 29012 ft | 471 kts | 185° |
| 2026-05-07 04:24 | 50.04232 | 4.09804 | 29011 ft | 471 kts | 184° |
| 2026-05-07 04:25 | 49.98699 | 4.09327 | 29013 ft | 472 kts | 182° |
| 2026-05-07 04:25 | 49.92005 | 4.08848 | 29011 ft | 471 kts | 182° |
| 2026-05-07 04:26 | 49.88800 | 4.08617 | 28705 ft | 456 kts | 182° |
| 2026-05-07 04:26 | 49.85287 | 4.08364 | 27552 ft | 457 kts | 182° |
| 2026-05-07 04:26 | 49.82081 | 4.08131 | 26362 ft | 463 kts | 182° |
| 2026-05-07 04:26 | 49.78845 | 4.07886 | 25710 ft | 456 kts | 183° |
| 2026-05-07 04:27 | 49.75597 | 4.07646 | 25282 ft | 444 kts | 183° |
| 2026-05-07 04:27 | 49.72555 | 4.07427 | 24961 ft | 430 kts | 182° |
| 2026-05-07 04:27 | 49.69366 | 4.07206 | 24495 ft | 421 kts | 183° |
| 2026-05-07 04:27 | 49.66456 | 4.07006 | 23928 ft | 416 kts | 183° |
| 2026-05-07 04:28 | 49.63585 | 4.06617 | 23264 ft | 413 kts | 191° |
| 2026-05-07 04:28 | 49.60869 | 4.05306 | 22592 ft | 407 kts | 206° |
| 2026-05-07 04:28 | 49.59226 | 4.03826 | 22161 ft | 403 kts | 217° |
| 2026-05-07 04:28 | 49.57169 | 4.00873 | 21541 ft | 397 kts | 232° |
| 2026-05-07 04:29 | 49.55607 | 3.97407 | 20861 ft | 393 kts | 239° |
| 2026-05-07 04:29 | 49.54091 | 3.93547 | 19863 ft | 398 kts | 240° |
| 2026-05-07 04:29 | 49.52649 | 3.89868 | 18821 ft | 405 kts | 239° |
| 2026-05-07 04:29 | 49.51155 | 3.86185 | 17950 ft | 405 kts | 238° |